createdAt,value
2023-04-02T00:07:44.860Z,31.90
2023-04-02T00:15:04.971Z,33.67
2023-04-02T00:22:26.235Z,34.80
2023-04-02T00:29:49.636Z,32.75
2023-04-02T00:37:07.722Z,31.05
2023-04-02T00:44:25.843Z,32.90
2023-04-02T00:51:47.822Z,32.97
2023-04-02T00:59:06.638Z,35.25
2023-04-02T01:06:28.479Z,27.90
2023-04-02T01:13:52.006Z,22.95
2023-04-02T01:21:32.898Z,20.25
2023-04-02T01:38:00.150Z,18.52
2023-04-02T01:52:37.750Z,23.27
2023-04-02T01:59:58.370Z,20.98
2023-04-02T02:07:17.729Z,22.48
2023-04-02T02:14:40.253Z,23.08
2023-04-02T02:22:05.568Z,18.33
2023-04-02T02:29:24.500Z,18.33
2023-04-02T02:36:46.817Z,17.45
2023-04-02T02:44:12.518Z,12.30
2023-04-02T02:51:39.436Z,11.05
2023-04-02T03:08:06.638Z,11.10
2023-04-02T03:15:29.828Z,11.05
2023-04-02T03:30:15.406Z,9.23
2023-04-02T03:37:35.883Z,8.60
2023-04-02T03:44:57.403Z,6.50
2023-04-02T03:52:26.945Z,9.77
2023-04-02T03:59:50.110Z,15.27
2023-04-02T04:07:11.035Z,12.32
2023-04-02T04:14:33.640Z,12.65
2023-04-02T04:21:58.131Z,14.98
2023-04-02T04:29:27.326Z,15.10
2023-04-02T04:36:54.952Z,14.68
2023-04-02T04:44:23.592Z,16.27
2023-04-02T04:51:49.338Z,21.08
2023-04-02T04:59:14.911Z,15.50
2023-04-02T05:06:36.937Z,19.10
2023-04-02T05:13:59.351Z,18.85
2023-04-02T05:21:20.485Z,17.60
2023-04-02T05:37:46.351Z,15.60
2023-04-02T05:45:14.955Z,15.55
2023-04-02T05:52:35.140Z,13.90
2023-04-02T05:59:59.025Z,13.95
2023-04-02T06:07:19.467Z,12.55
2023-04-02T06:14:42.001Z,17.95
2023-04-02T06:22:09.159Z,10.55
2023-04-02T06:29:29.456Z,13.82
2023-04-02T06:36:49.990Z,13.20
2023-04-02T06:44:13.326Z,8.35
2023-04-02T06:52:02.394Z,8.10
2023-04-02T07:07:55.417Z,6.32
2023-04-02T07:15:16.517Z,6.72
2023-04-02T07:22:34.930Z,5.38
2023-04-02T07:29:56.146Z,6.70
2023-04-02T07:37:15.196Z,4.63
2023-04-02T07:44:33.400Z,3.58
2023-04-02T07:51:53.169Z,5.00
2023-04-02T07:59:11.427Z,4.68
2023-04-02T08:06:29.806Z,6.43
2023-04-02T08:13:49.552Z,7.97
2023-04-02T08:21:08.252Z,4.97
2023-04-02T08:28:26.680Z,6.13
2023-04-02T08:35:46.783Z,6.28
2023-04-02T08:43:21.748Z,5.78
2023-04-02T08:50:42.098Z,6.07
2023-04-02T08:58:04.877Z,5.53
2023-04-02T09:05:25.333Z,4.37
2023-04-02T09:12:44.772Z,4.60
2023-04-02T09:20:10.058Z,5.75
2023-04-02T09:27:29.008Z,10.55
2023-04-02T09:34:47.246Z,9.27
2023-04-02T09:42:29.376Z,7.88
2023-04-02T09:49:47.464Z,7.47
2023-04-02T09:57:06.068Z,9.73
2023-04-02T10:04:39.308Z,9.60
2023-04-02T10:11:59.987Z,7.15
2023-04-02T10:19:23.358Z,8.13
2023-04-02T10:26:49.385Z,7.78
2023-04-02T10:34:13.609Z,8.45
2023-04-02T10:41:33.841Z,8.77
2023-04-02T10:48:55.589Z,6.65
2023-04-02T10:56:15.813Z,11.15
2023-04-02T11:03:37.559Z,11.48
2023-04-02T11:10:58.097Z,9.10
2023-04-02T11:18:26.717Z,9.00
2023-04-02T11:25:45.278Z,7.53
2023-04-02T11:33:35.869Z,7.32
2023-04-02T11:40:56.122Z,5.60
2023-04-02T11:48:30.715Z,6.63
2023-04-02T11:56:06.485Z,5.78
2023-04-02T12:03:34.579Z,8.20
2023-04-02T12:10:55.519Z,6.13
2023-04-02T12:18:18.323Z,14.73
2023-04-02T12:25:40.605Z,9.93
2023-04-02T12:32:59.001Z,8.48
2023-04-02T12:40:18.895Z,7.70
2023-04-02T12:47:41.445Z,8.23
2023-04-02T12:55:00.480Z,6.00
2023-04-02T13:02:19.810Z,6.30
2023-04-02T13:09:42.277Z,6.50
2023-04-02T13:17:00.571Z,10.60
2023-04-02T13:24:19.617Z,7.72
2023-04-02T13:31:39.249Z,6.95
2023-04-02T13:38:57.535Z,9.07
2023-04-02T13:46:19.646Z,8.70
2023-04-02T13:53:40.168Z,7.32
2023-04-02T14:00:58.586Z,8.65
2023-04-02T14:08:21.778Z,15.85
2023-04-02T14:15:50.254Z,6.90
2023-04-02T14:23:13.894Z,16.75
2023-04-02T14:30:37.974Z,8.32
2023-04-02T14:38:03.006Z,10.23
2023-04-02T14:45:24.785Z,9.32
2023-04-02T14:52:45.225Z,9.05
2023-04-02T15:00:06.764Z,7.43
2023-04-02T15:07:27.083Z,9.05
2023-04-02T15:14:47.266Z,7.45
2023-04-02T15:22:10.956Z,12.15
2023-04-02T15:29:39.181Z,9.23
2023-04-02T15:37:02.832Z,11.23
2023-04-02T15:44:22.224Z,9.65
2023-04-02T15:51:51.736Z,9.82
2023-04-02T15:59:26.255Z,8.85
2023-04-02T16:06:53.380Z,8.80
2023-04-02T16:14:21.972Z,9.52
2023-04-02T16:21:42.009Z,8.38
2023-04-02T16:29:06.130Z,8.60
2023-04-02T16:36:32.093Z,11.57
2023-04-02T16:43:54.038Z,16.25
2023-04-02T16:51:19.700Z,12.85
2023-04-02T16:58:44.864Z,16.00
2023-04-02T17:06:04.106Z,15.48
2023-04-02T17:13:27.494Z,10.90
2023-04-02T17:28:03.848Z,12.63
2023-04-02T17:35:26.204Z,14.00
2023-04-02T17:42:50.234Z,11.35
2023-04-02T17:50:22.291Z,20.73
2023-04-02T17:57:50.238Z,13.52
2023-04-02T18:05:13.919Z,9.60
2023-04-02T18:12:37.166Z,7.78
2023-04-02T18:20:02.116Z,6.68
2023-04-02T18:27:27.957Z,7.00
2023-04-02T18:34:54.966Z,6.65
2023-04-02T18:42:18.641Z,15.52
2023-04-02T18:49:39.234Z,14.38
2023-04-02T18:56:57.649Z,45.90
2023-04-02T19:05:02.886Z,15.23
2023-04-02T19:12:23.780Z,16.25
2023-04-02T19:19:44.957Z,22.55
2023-04-02T19:27:08.736Z,15.02
2023-04-02T19:34:29.822Z,77.13
2023-04-02T19:41:50.006Z,42.35
2023-04-02T19:49:10.748Z,12.00
2023-04-02T19:56:30.232Z,7.93
2023-04-02T20:12:21.981Z,11.95
2023-04-02T20:19:40.292Z,8.20
2023-04-02T20:26:58.318Z,7.25
2023-04-02T20:34:18.014Z,8.45
2023-04-02T20:41:36.136Z,9.48
2023-04-02T20:48:54.113Z,13.10
2023-04-02T20:56:14.637Z,9.93
2023-04-02T21:12:37.862Z,6.80
2023-04-02T21:19:55.757Z,8.32
2023-04-02T21:27:13.868Z,6.22
2023-04-02T21:34:33.368Z,6.45
2023-04-02T21:41:53.220Z,5.68
2023-04-02T21:49:12.131Z,7.65
2023-04-02T21:56:32.392Z,6.20
2023-04-02T22:12:24.259Z,10.27
2023-04-02T22:19:42.166Z,8.43
2023-04-02T22:27:00.301Z,8.40
2023-04-02T22:34:19.778Z,12.77
2023-04-02T22:41:38.585Z,9.05
2023-04-02T22:48:56.916Z,9.43
2023-04-02T22:56:18.301Z,7.80
2023-04-02T23:12:41.770Z,5.70
2023-04-02T23:19:59.677Z,13.93
2023-04-02T23:27:18.244Z,8.77
2023-04-02T23:34:38.203Z,8.00
2023-04-02T23:41:57.078Z,6.00
2023-04-02T23:49:15.242Z,8.18
2023-04-02T23:56:35.526Z,12.55
